GMME/RBA METAR and TAF weather

Enter ICAO airport designator
Station Type Date Time Source
GMME METAR 2024/06/15 23:00 UTC NOAA

GMME 152300Z 00000KT 5000 BKN016 19/16 Q1017 NOSIG


Station Type Date Time Source
GMME Decoded METAR 2024/06/15 23:00 UTC NOAA

Rabat-Sale, Morocco (GMME) 34-03N 006-46W 75M
Jun 15, 2024 - 07:00 PM EDT / 2024.06.15 2300 UTC
Wind: Calm:0
Visibility: 3 mile(s):0
Sky conditions: mostly cloudy
Temperature: 66 F (19 C)
Dew Point: 60 F (16 C)
Relative Humidity: 82%
Pressure (altimeter): 30.03 in. Hg (1017 hPa)
ob: GMME 152300Z 00000KT 5000 BKN016 19/16 Q1017 NOSIG
cycle: 23

Station Type Date Time Source
GMME TAF 2024/06/15 18:18 UTC NOAA